LFPGTNCM

Guest
Details From LFPG - Paris Charles De Gaulle
To TNCM - St Maarten - Princess Juliana Intl
Flight Number -
Tags Generated
Created
Modified
Stats Distance 3,639 nm / 6,740 km
Max Altitude 0 ft / 0 m
Waypoints 4
Social Downloads 3
Likes 0
Share VATSIM

Download

Looking for another format? Having issues loading an existing format? Contact us
Advertisement - Login to hide

Notes

Generated

Route

LFPG SB MNOLO TNCM

ID Type Via Altitude Latitude Longitude Leg Dist Tot Dist Heading (true) Name
O LFPG APT - 0 ft / 0 m 49.02472˚ 2.52489˚ - 0 nm - -
SB NDB - 0 ft / 0 m 48.56955˚ -2.78033˚ 211 nm 211 nm 265° / 261° Saint Brieuc NDB
MNOLO FIX - 0 ft / 0 m 18.34556˚ -62.80211˚ 3401 nm 3613 nm 260° / 223° -
O TNCM APT - 0 ft / 0 m 18.03937˚ -63.11961˚ 25 nm 3639 nm 225° / 225° -

Altitude Profile

Advertisement - Login to hide

Weather


0- 5 10 15 20 25 30 35+ Temperature / ° C

Clouds and Precipitation
Forecast for 2017-12-12 18:00 UTC. Updated an hour ago

Ground ~20,000 ft ~40,000 ft Winds

LFPG

Details ICAO LFPG (CDG)
Name Paris Charles De Gaulle
Region France
Timezone Europe/Paris (UTC+1.0)
Stats Elevation 392 ft / 119 m (AMSL)
Location 49.009742° 2.562619°
Runways 4
Magnetic Variation 0.640° E

METAR

LFPG 121600Z 26008KT 9999 FEW026 05/01 Q1014

Decode

TAF

TAF LFPG 120554Z 1206/1312 CNL

Decode

Departure Runways

ID Width Length Bearing (true) Bearing (mag) Surface Threshold Offset Overrun Length
08L 148 ft / 45 m 14,039 ft / 4,279 m 85.37° 84.73° Asphalt 0 ft / 0 m 0 ft / 0 m
08R 197 ft / 60 m 8,797 ft / 2,681 m 85.39° 84.75° Asphalt 0 ft / 0 m 0 ft / 0 m
09L 197 ft / 60 m 8,835 ft / 2,693 m 85.39° 84.75° Asphalt 0 ft / 0 m 0 ft / 0 m
09R 148 ft / 45 m 13,744 ft / 4,189 m 85.38° 84.74° Asphalt 0 ft / 0 m 0 ft / 0 m
26L 197 ft / 60 m 8,797 ft / 2,681 m 265.41° 264.77° Asphalt 0 ft / 0 m 0 ft / 0 m
26R 148 ft / 45 m 14,039 ft / 4,279 m 265.41° 264.77° Asphalt 1,893 ft / 577 m 0 ft / 0 m
27L 148 ft / 45 m 13,744 ft / 4,189 m 265.42° 264.78° Asphalt 1,969 ft / 600 m 0 ft / 0 m
27R 197 ft / 60 m 8,835 ft / 2,693 m 265.41° 264.77° Asphalt 0 ft / 0 m 0 ft / 0 m

TNCM

Details ICAO TNCM (SXM)
Name St Maarten - Princess Juliana Intl
Region Caribbean Netherlands, Aruba, Curaçao, Sint Maarten
Timezone Unknown (UTC+0.0)
Stats Elevation 12 ft / 4 m (AMSL)
Location 18.040889° -63.108974°
Runways 1
Magnetic Variation 14.325° W

METAR

TNCM 121600Z 13007KT 090V180 9999 FEW020 29/22 Q1014 A2995 NOSIG

Decode

TAF

TAF TNCM 121129Z 1212/1312 07004KT P6SM FEW018 FM121430 14010KT P6SM SCT022 PROB30 1306/1312 -SHRA BKN018

Decode

Destination Runways

ID Width Length Bearing (true) Bearing (mag) Surface Threshold Offset Overrun Length
10 148 ft / 45 m 7,464 ft / 2,275 m 81.43° 95.75° Asphalt 0 ft / 0 m 151 ft / 46 m
28 148 ft / 45 m 7,464 ft / 2,275 m 261.44° 275.76° Asphalt 397 ft / 121 m 0 ft / 0 m

Popular Alternatives